< < Back
Terminal Aerodrome Forecast


Current Version              Previous Versions:   1  2  3  4  5  6  7  8  9  

Terminal Aerodrome Forecast

253
FTUS42 KMLB 312300
TAFDAB
TAF
KDAB 312320Z 0100/0124 13004KT P6SM FEW040 FEW250
     FM010200 VRB02KT P6SM FEW030
     FM011400 11005KT P6SM FEW025 FEW250=



Latest METAR

930
SAUS80 KWBC 010500 RRQ
MTRDAB
METAR KDAB 020453Z 00000KT 10SM FEW250 26/24 A3010 RMK AO2 SLP193
T02560239 403330233


USA.gov is the U.S. government's official web portal to all federal, state and local government web resources and services.